sensor_id;sensor_type;location;lat;lon;timestamp;P1;durP1;ratioP1;P2;durP2;ratioP2
64795;SDS011;51229;51.980;6.722;2022-07-10T00:00:13;7.32;;;1.60;;
64795;SDS011;51229;51.980;6.722;2022-07-10T00:02:43;3.05;;;1.17;;
64795;SDS011;51229;51.980;6.722;2022-07-10T00:05:10;5.10;;;1.50;;
64795;SDS011;51229;51.980;6.722;2022-07-10T00:07:36;4.75;;;1.40;;
64795;SDS011;51229;51.980;6.722;2022-07-10T00:10:05;4.82;;;1.70;;
64795;SDS011;51229;51.980;6.722;2022-07-10T00:12:31;6.47;;;1.80;;
64795;SDS011;51229;51.980;6.722;2022-07-10T00:14:57;5.25;;;1.60;;
64795;SDS011;51229;51.980;6.722;2022-07-10T00:17:23;4.47;;;1.50;;
64795;SDS011;51229;51.980;6.722;2022-07-10T00:19:48;3.80;;;1.48;;
64795;SDS011;51229;51.980;6.722;2022-07-10T00:22:14;5.65;;;1.60;;
64795;SDS011;51229;51.980;6.722;2022-07-10T00:24:40;5.05;;;1.60;;
64795;SDS011;51229;51.980;6.722;2022-07-10T00:27:05;5.32;;;1.55;;
64795;SDS011;51229;51.980;6.722;2022-07-10T00:29:31;5.40;;;1.50;;
64795;SDS011;51229;51.980;6.722;2022-07-10T00:31:57;4.55;;;1.60;;
64795;SDS011;51229;51.980;6.722;2022-07-10T00:34:22;5.00;;;1.30;;
64795;SDS011;51229;51.980;6.722;2022-07-10T00:36:48;4.15;;;1.20;;
64795;SDS011;51229;51.980;6.722;2022-07-10T00:39:14;4.55;;;1.55;;
64795;SDS011;51229;51.980;6.722;2022-07-10T00:41:39;6.85;;;1.70;;
64795;SDS011;51229;51.980;6.722;2022-07-10T00:44:05;5.72;;;1.20;;
64795;SDS011;51229;51.980;6.722;2022-07-10T00:46:31;5.28;;;1.40;;
64795;SDS011;51229;51.980;6.722;2022-07-10T00:48:57;4.15;;;1.38;;
64795;SDS011;51229;51.980;6.722;2022-07-10T00:51:24;5.28;;;1.67;;
64795;SDS011;51229;51.980;6.722;2022-07-10T00:53:52;3.65;;;1.10;;
64795;SDS011;51229;51.980;6.722;2022-07-10T00:56:21;6.53;;;1.38;;
64795;SDS011;51229;51.980;6.722;2022-07-10T00:58:49;3.97;;;1.40;;
64795;SDS011;51229;51.980;6.722;2022-07-10T01:01:15;4.32;;;1.40;;
64795;SDS011;51229;51.980;6.722;2022-07-10T01:03:42;5.57;;;1.23;;
64795;SDS011;51229;51.980;6.722;2022-07-10T01:06:09;7.18;;;1.40;;
64795;SDS011;51229;51.980;6.722;2022-07-10T01:08:34;4.88;;;1.60;;
64795;SDS011;51229;51.980;6.722;2022-07-10T01:11:00;4.90;;;1.50;;
64795;SDS011;51229;51.980;6.722;2022-07-10T01:13:27;4.25;;;1.50;;
64795;SDS011;51229;51.980;6.722;2022-07-10T01:15:53;4.18;;;1.30;;
64795;SDS011;51229;51.980;6.722;2022-07-10T01:18:19;5.32;;;1.50;;
64795;SDS011;51229;51.980;6.722;2022-07-10T01:20:45;5.97;;;1.38;;
64795;SDS011;51229;51.980;6.722;2022-07-10T01:23:11;4.70;;;1.55;;
64795;SDS011;51229;51.980;6.722;2022-07-10T01:25:37;4.50;;;1.33;;
64795;SDS011;51229;51.980;6.722;2022-07-10T01:28:02;5.88;;;1.60;;
64795;SDS011;51229;51.980;6.722;2022-07-10T01:30:28;4.85;;;1.70;;
64795;SDS011;51229;51.980;6.722;2022-07-10T01:32:54;4.82;;;1.30;;
64795;SDS011;51229;51.980;6.722;2022-07-10T01:35:20;6.03;;;1.50;;
64795;SDS011;51229;51.980;6.722;2022-07-10T01:37:46;5.07;;;1.20;;
64795;SDS011;51229;51.980;6.722;2022-07-10T01:40:11;5.35;;;1.50;;
64795;SDS011;51229;51.980;6.722;2022-07-10T01:42:38;6.93;;;1.50;;
64795;SDS011;51229;51.980;6.722;2022-07-10T01:45:07;4.05;;;1.50;;
64795;SDS011;51229;51.980;6.722;2022-07-10T01:47:33;3.90;;;1.20;;
64795;SDS011;51229;51.980;6.722;2022-07-10T01:49:59;5.00;;;1.60;;
64795;SDS011;51229;51.980;6.722;2022-07-10T01:52:24;5.13;;;1.60;;
64795;SDS011;51229;51.980;6.722;2022-07-10T01:54:50;4.45;;;1.30;;
64795;SDS011;51229;51.980;6.722;2022-07-10T01:57:16;4.47;;;1.65;;
64795;SDS011;51229;51.980;6.722;2022-07-10T01:59:42;4.45;;;1.38;;
64795;SDS011;51229;51.980;6.722;2022-07-10T02:02:08;6.70;;;1.35;;
64795;SDS011;51229;51.980;6.722;2022-07-10T02:04:34;4.40;;;1.65;;
64795;SDS011;51229;51.980;6.722;2022-07-10T02:07:06;4.40;;;1.63;;
64795;SDS011;51229;51.980;6.722;2022-07-10T02:09:36;8.57;;;1.70;;
64795;SDS011;51229;51.980;6.722;2022-07-10T02:12:02;6.72;;;1.80;;
64795;SDS011;51229;51.980;6.722;2022-07-10T02:14:28;5.38;;;1.40;;
64795;SDS011;51229;51.980;6.722;2022-07-10T02:16:54;6.55;;;1.60;;
64795;SDS011;51229;51.980;6.722;2022-07-10T02:19:20;8.07;;;1.60;;
64795;SDS011;51229;51.980;6.722;2022-07-10T02:21:46;4.80;;;1.60;;
64795;SDS011;51229;51.980;6.722;2022-07-10T02:24:12;5.65;;;1.83;;
64795;SDS011;51229;51.980;6.722;2022-07-10T02:26:37;7.78;;;1.60;;
64795;SDS011;51229;51.980;6.722;2022-07-10T02:29:03;5.60;;;1.65;;
64795;SDS011;51229;51.980;6.722;2022-07-10T02:31:28;8.02;;;1.60;;
64795;SDS011;51229;51.980;6.722;2022-07-10T02:33:54;7.35;;;1.70;;
64795;SDS011;51229;51.980;6.722;2022-07-10T02:36:20;5.65;;;1.50;;
64795;SDS011;51229;51.980;6.722;2022-07-10T02:38:45;4.35;;;1.30;;
64795;SDS011;51229;51.980;6.722;2022-07-10T02:41:11;3.90;;;1.55;;
64795;SDS011;51229;51.980;6.722;2022-07-10T02:43:37;4.30;;;1.45;;
64795;SDS011;51229;51.980;6.722;2022-07-10T02:46:02;7.68;;;1.40;;
64795;SDS011;51229;51.980;6.722;2022-07-10T02:48:28;4.88;;;1.70;;
64795;SDS011;51229;51.980;6.722;2022-07-10T02:50:54;5.07;;;1.60;;
64795;SDS011;51229;51.980;6.722;2022-07-10T02:53:20;4.25;;;1.48;;
64795;SDS011;51229;51.980;6.722;2022-07-10T02:55:45;5.10;;;1.65;;
64795;SDS011;51229;51.980;6.722;2022-07-10T02:58:11;5.82;;;1.60;;
64795;SDS011;51229;51.980;6.722;2022-07-10T03:00:36;4.97;;;1.70;;
64795;SDS011;51229;51.980;6.722;2022-07-10T03:03:02;5.88;;;1.50;;
64795;SDS011;51229;51.980;6.722;2022-07-10T03:05:28;5.03;;;1.60;;
64795;SDS011;51229;51.980;6.722;2022-07-10T03:07:54;7.05;;;1.90;;
64795;SDS011;51229;51.980;6.722;2022-07-10T03:10:19;3.88;;;1.60;;
64795;SDS011;51229;51.980;6.722;2022-07-10T03:12:45;5.75;;;1.73;;
64795;SDS011;51229;51.980;6.722;2022-07-10T03:15:11;6.38;;;1.88;;
64795;SDS011;51229;51.980;6.722;2022-07-10T03:17:38;6.03;;;1.60;;
64795;SDS011;51229;51.980;6.722;2022-07-10T03:20:05;7.05;;;1.67;;
64795;SDS011;51229;51.980;6.722;2022-07-10T03:22:32;3.72;;;1.30;;
64795;SDS011;51229;51.980;6.722;2022-07-10T03:24:58;5.03;;;1.55;;
64795;SDS011;51229;51.980;6.722;2022-07-10T03:27:23;5.93;;;1.50;;
64795;SDS011;51229;51.980;6.722;2022-07-10T03:29:49;5.32;;;1.67;;
64795;SDS011;51229;51.980;6.722;2022-07-10T03:32:15;6.80;;;1.70;;
64795;SDS011;51229;51.980;6.722;2022-07-10T03:34:40;5.18;;;1.50;;
64795;SDS011;51229;51.980;6.722;2022-07-10T03:37:06;7.30;;;1.83;;
64795;SDS011;51229;51.980;6.722;2022-07-10T03:39:32;6.05;;;1.85;;
64795;SDS011;51229;51.980;6.722;2022-07-10T03:41:58;4.55;;;1.70;;
64795;SDS011;51229;51.980;6.722;2022-07-10T03:44:23;5.10;;;1.90;;
64795;SDS011;51229;51.980;6.722;2022-07-10T03:46:49;5.32;;;1.73;;
64795;SDS011;51229;51.980;6.722;2022-07-10T03:49:15;5.80;;;1.77;;
64795;SDS011;51229;51.980;6.722;2022-07-10T03:51:41;3.97;;;1.60;;
64795;SDS011;51229;51.980;6.722;2022-07-10T03:54:06;3.30;;;1.13;;
64795;SDS011;51229;51.980;6.722;2022-07-10T03:56:32;5.57;;;2.10;;
64795;SDS011;51229;51.980;6.722;2022-07-10T03:59:17;7.88;;;1.77;;
64795;SDS011;51229;51.980;6.722;2022-07-10T04:01:43;4.72;;;1.70;;
64795;SDS011;51229;51.980;6.722;2022-07-10T04:04:08;5.90;;;1.70;;
64795;SDS011;51229;51.980;6.722;2022-07-10T04:06:34;5.95;;;1.90;;
64795;SDS011;51229;51.980;6.722;2022-07-10T04:09:03;7.50;;;1.85;;
64795;SDS011;51229;51.980;6.722;2022-07-10T04:11:29;7.28;;;1.70;;
64795;SDS011;51229;51.980;6.722;2022-07-10T04:13:55;4.13;;;1.65;;
64795;SDS011;51229;51.980;6.722;2022-07-10T04:16:20;6.68;;;1.88;;
64795;SDS011;51229;51.980;6.722;2022-07-10T04:18:46;7.82;;;1.75;;
64795;SDS011;51229;51.980;6.722;2022-07-10T04:21:12;8.43;;;2.13;;
64795;SDS011;51229;51.980;6.722;2022-07-10T04:23:37;6.18;;;2.00;;
64795;SDS011;51229;51.980;6.722;2022-07-10T04:26:03;7.47;;;1.73;;
64795;SDS011;51229;51.980;6.722;2022-07-10T04:28:29;5.15;;;1.90;;
64795;SDS011;51229;51.980;6.722;2022-07-10T04:30:54;6.15;;;2.08;;
64795;SDS011;51229;51.980;6.722;2022-07-10T04:33:20;5.50;;;1.80;;
64795;SDS011;51229;51.980;6.722;2022-07-10T04:35:46;5.95;;;1.60;;
64795;SDS011;51229;51.980;6.722;2022-07-10T04:38:11;7.25;;;1.92;;
64795;SDS011;51229;51.980;6.722;2022-07-10T04:40:37;6.15;;;1.70;;
64795;SDS011;51229;51.980;6.722;2022-07-10T04:43:03;5.70;;;1.77;;
64795;SDS011;51229;51.980;6.722;2022-07-10T04:45:28;6.05;;;1.95;;
64795;SDS011;51229;51.980;6.722;2022-07-10T04:47:54;5.43;;;1.40;;
64795;SDS011;51229;51.980;6.722;2022-07-10T04:50:19;5.68;;;1.73;;
64795;SDS011;51229;51.980;6.722;2022-07-10T04:52:45;4.30;;;1.52;;
64795;SDS011;51229;51.980;6.722;2022-07-10T04:55:11;6.65;;;1.67;;
64795;SDS011;51229;51.980;6.722;2022-07-10T04:57:36;6.28;;;1.70;;
64795;SDS011;51229;51.980;6.722;2022-07-10T05:00:03;5.88;;;1.60;;
64795;SDS011;51229;51.980;6.722;2022-07-10T05:02:29;5.03;;;1.80;;
64795;SDS011;51229;51.980;6.722;2022-07-10T05:04:55;7.40;;;1.90;;
64795;SDS011;51229;51.980;6.722;2022-07-10T05:07:21;6.15;;;1.60;;
64795;SDS011;51229;51.980;6.722;2022-07-10T05:09:46;5.60;;;1.60;;
64795;SDS011;51229;51.980;6.722;2022-07-10T05:12:12;5.53;;;1.30;;
64795;SDS011;51229;51.980;6.722;2022-07-10T05:14:38;6.25;;;1.40;;
64795;SDS011;51229;51.980;6.722;2022-07-10T05:17:03;4.57;;;1.30;;
64795;SDS011;51229;51.980;6.722;2022-07-10T05:19:29;6.03;;;1.60;;
64795;SDS011;51229;51.980;6.722;2022-07-10T05:21:54;5.80;;;1.50;;
64795;SDS011;51229;51.980;6.722;2022-07-10T05:24:20;6.75;;;1.90;;
64795;SDS011;51229;51.980;6.722;2022-07-10T05:26:46;5.88;;;1.80;;
64795;SDS011;51229;51.980;6.722;2022-07-10T05:29:11;8.27;;;1.65;;
64795;SDS011;51229;51.980;6.722;2022-07-10T05:31:37;4.63;;;1.40;;
64795;SDS011;51229;51.980;6.722;2022-07-10T05:34:03;5.80;;;1.60;;
64795;SDS011;51229;51.980;6.722;2022-07-10T05:36:28;5.57;;;1.70;;
64795;SDS011;51229;51.980;6.722;2022-07-10T05:38:54;7.93;;;1.80;;
64795;SDS011;51229;51.980;6.722;2022-07-10T05:41:20;5.88;;;1.40;;
64795;SDS011;51229;51.980;6.722;2022-07-10T05:43:45;4.72;;;1.45;;
64795;SDS011;51229;51.980;6.722;2022-07-10T05:46:11;5.43;;;1.63;;
64795;SDS011;51229;51.980;6.722;2022-07-10T05:48:37;3.60;;;1.42;;
64795;SDS011;51229;51.980;6.722;2022-07-10T05:51:03;4.90;;;1.58;;
64795;SDS011;51229;51.980;6.722;2022-07-10T05:53:29;6.03;;;1.50;;
64795;SDS011;51229;51.980;6.722;2022-07-10T05:55:59;4.85;;;1.70;;
64795;SDS011;51229;51.980;6.722;2022-07-10T05:58:26;6.53;;;1.67;;
64795;SDS011;51229;51.980;6.722;2022-07-10T06:00:51;7.18;;;1.75;;
64795;SDS011;51229;51.980;6.722;2022-07-10T06:03:17;5.78;;;1.65;;
64795;SDS011;51229;51.980;6.722;2022-07-10T06:05:43;6.65;;;2.00;;
64795;SDS011;51229;51.980;6.722;2022-07-10T06:08:10;4.57;;;1.83;;
64795;SDS011;51229;51.980;6.722;2022-07-10T06:10:36;4.85;;;1.67;;
64795;SDS011;51229;51.980;6.722;2022-07-10T06:13:01;6.88;;;2.05;;
64795;SDS011;51229;51.980;6.722;2022-07-10T06:15:27;6.88;;;1.50;;
64795;SDS011;51229;51.980;6.722;2022-07-10T06:17:55;6.50;;;1.40;;
64795;SDS011;51229;51.980;6.722;2022-07-10T06:20:23;6.22;;;1.58;;
64795;SDS011;51229;51.980;6.722;2022-07-10T06:22:50;8.88;;;1.52;;
64795;SDS011;51229;51.980;6.722;2022-07-10T06:25:15;5.15;;;1.50;;
64795;SDS011;51229;51.980;6.722;2022-07-10T06:27:41;4.70;;;1.40;;
64795;SDS011;51229;51.980;6.722;2022-07-10T06:30:07;5.32;;;1.40;;
64795;SDS011;51229;51.980;6.722;2022-07-10T06:32:33;7.95;;;1.48;;
64795;SDS011;51229;51.980;6.722;2022-07-10T06:34:58;6.88;;;1.60;;
64795;SDS011;51229;51.980;6.722;2022-07-10T06:37:24;4.45;;;1.40;;
64795;SDS011;51229;51.980;6.722;2022-07-10T06:39:50;9.45;;;1.60;;
64795;SDS011;51229;51.980;6.722;2022-07-10T06:42:16;4.88;;;1.70;;
64795;SDS011;51229;51.980;6.722;2022-07-10T06:44:46;4.43;;;1.50;;
64795;SDS011;51229;51.980;6.722;2022-07-10T06:47:13;6.85;;;1.90;;
64795;SDS011;51229;51.980;6.722;2022-07-10T06:50:01;5.93;;;1.90;;
64795;SDS011;51229;51.980;6.722;2022-07-10T06:52:33;5.65;;;1.77;;
64795;SDS011;51229;51.980;6.722;2022-07-10T06:55:00;8.50;;;1.80;;
64795;SDS011;51229;51.980;6.722;2022-07-10T06:57:27;6.90;;;1.92;;
64795;SDS011;51229;51.980;6.722;2022-07-10T06:59:53;6.68;;;1.83;;
64795;SDS011;51229;51.980;6.722;2022-07-10T07:02:19;6.03;;;2.22;;
64795;SDS011;51229;51.980;6.722;2022-07-10T07:04:45;6.80;;;1.88;;
64795;SDS011;51229;51.980;6.722;2022-07-10T07:07:11;6.00;;;1.85;;
64795;SDS011;51229;51.980;6.722;2022-07-10T07:09:37;7.07;;;1.88;;
64795;SDS011;51229;51.980;6.722;2022-07-10T07:12:04;9.07;;;2.10;;
64795;SDS011;51229;51.980;6.722;2022-07-10T07:14:30;7.22;;;1.83;;
64795;SDS011;51229;51.980;6.722;2022-07-10T07:16:56;7.03;;;1.35;;
64795;SDS011;51229;51.980;6.722;2022-07-10T07:19:35;7.70;;;2.30;;
64795;SDS011;51229;51.980;6.722;2022-07-10T07:22:20;5.78;;;1.77;;
64795;SDS011;51229;51.980;6.722;2022-07-10T07:25:05;8.52;;;1.60;;
64795;SDS011;51229;51.980;6.722;2022-07-10T07:27:33;5.65;;;1.55;;
64795;SDS011;51229;51.980;6.722;2022-07-10T07:30:06;9.95;;;2.13;;
64795;SDS011;51229;51.980;6.722;2022-07-10T07:32:35;5.65;;;1.60;;
64795;SDS011;51229;51.980;6.722;2022-07-10T07:35:02;6.50;;;1.50;;
64795;SDS011;51229;51.980;6.722;2022-07-10T07:40:04;6.28;;;1.83;;
64795;SDS011;51229;51.980;6.722;2022-07-10T07:42:31;7.90;;;1.85;;
64795;SDS011;51229;51.980;6.722;2022-07-10T07:44:57;4.10;;;1.75;;
64795;SDS011;51229;51.980;6.722;2022-07-10T07:47:23;7.60;;;1.73;;
64795;SDS011;51229;51.980;6.722;2022-07-10T07:49:48;9.38;;;2.47;;
64795;SDS011;51229;51.980;6.722;2022-07-10T07:52:14;7.65;;;1.70;;
64795;SDS011;51229;51.980;6.722;2022-07-10T07:54:40;5.78;;;2.00;;
64795;SDS011;51229;51.980;6.722;2022-07-10T07:57:05;5.57;;;1.60;;
64795;SDS011;51229;51.980;6.722;2022-07-10T07:59:31;5.13;;;1.65;;
64795;SDS011;51229;51.980;6.722;2022-07-10T08:01:57;7.00;;;1.70;;
64795;SDS011;51229;51.980;6.722;2022-07-10T08:04:22;8.35;;;1.80;;
64795;SDS011;51229;51.980;6.722;2022-07-10T08:06:48;5.13;;;1.65;;
64795;SDS011;51229;51.980;6.722;2022-07-10T08:09:17;8.40;;;1.98;;
64795;SDS011;51229;51.980;6.722;2022-07-10T08:11:43;6.15;;;1.60;;
64795;SDS011;51229;51.980;6.722;2022-07-10T08:14:09;5.15;;;1.63;;
64795;SDS011;51229;51.980;6.722;2022-07-10T08:16:35;5.95;;;2.08;;
64795;SDS011;51229;51.980;6.722;2022-07-10T08:19:00;8.50;;;2.03;;
64795;SDS011;51229;51.980;6.722;2022-07-10T08:21:26;7.10;;;1.63;;
64795;SDS011;51229;51.980;6.722;2022-07-10T08:23:52;6.13;;;1.88;;
64795;SDS011;51229;51.980;6.722;2022-07-10T08:26:18;6.63;;;2.15;;
64795;SDS011;51229;51.980;6.722;2022-07-10T08:28:44;7.15;;;1.80;;
64795;SDS011;51229;51.980;6.722;2022-07-10T08:31:10;7.53;;;1.88;;
64795;SDS011;51229;51.980;6.722;2022-07-10T08:33:36;6.20;;;1.92;;
64795;SDS011;51229;51.980;6.722;2022-07-10T08:36:02;6.18;;;1.80;;
64795;SDS011;51229;51.980;6.722;2022-07-10T08:38:28;6.20;;;1.70;;
64795;SDS011;51229;51.980;6.722;2022-07-10T08:40:54;5.97;;;1.98;;
64795;SDS011;51229;51.980;6.722;2022-07-10T08:43:25;5.25;;;2.10;;
64795;SDS011;51229;51.980;6.722;2022-07-10T08:45:51;7.35;;;2.08;;
64795;SDS011;51229;51.980;6.722;2022-07-10T08:48:21;6.68;;;1.60;;
64795;SDS011;51229;51.980;6.722;2022-07-10T08:50:52;6.10;;;1.52;;
64795;SDS011;51229;51.980;6.722;2022-07-10T08:53:29;6.05;;;2.00;;
64795;SDS011;51229;51.980;6.722;2022-07-10T08:55:56;4.38;;;1.65;;
64795;SDS011;51229;51.980;6.722;2022-07-10T08:58:23;6.35;;;1.77;;
64795;SDS011;51229;51.980;6.722;2022-07-10T09:00:49;5.45;;;2.03;;
64795;SDS011;51229;51.980;6.722;2022-07-10T09:03:15;6.93;;;2.13;;
64795;SDS011;51229;51.980;6.722;2022-07-10T09:05:41;4.93;;;2.05;;
64795;SDS011;51229;51.980;6.722;2022-07-10T09:11:15;7.40;;;2.28;;
64795;SDS011;51229;51.980;6.722;2022-07-10T09:13:53;5.35;;;2.45;;
64795;SDS011;51229;51.980;6.722;2022-07-10T09:16:33;6.20;;;2.30;;
64795;SDS011;51229;51.980;6.722;2022-07-10T09:22:09;5.20;;;2.25;;
64795;SDS011;51229;51.980;6.722;2022-07-10T09:24:40;5.75;;;2.40;;
64795;SDS011;51229;51.980;6.722;2022-07-10T09:27:11;5.80;;;2.28;;
64795;SDS011;51229;51.980;6.722;2022-07-10T09:29:46;4.72;;;1.90;;
64795;SDS011;51229;51.980;6.722;2022-07-10T09:32:20;4.65;;;2.17;;
64795;SDS011;51229;51.980;6.722;2022-07-10T09:34:46;4.95;;;2.33;;
64795;SDS011;51229;51.980;6.722;2022-07-10T09:37:31;4.45;;;2.00;;
64795;SDS011;51229;51.980;6.722;2022-07-10T09:40:01;5.03;;;2.10;;
64795;SDS011;51229;51.980;6.722;2022-07-10T09:42:29;4.55;;;2.10;;
64795;SDS011;51229;51.980;6.722;2022-07-10T09:47:44;3.67;;;1.80;;
64795;SDS011;51229;51.980;6.722;2022-07-10T09:55:26;2.95;;;1.60;;
64795;SDS011;51229;51.980;6.722;2022-07-10T09:57:57;4.13;;;1.60;;
64795;SDS011;51229;51.980;6.722;2022-07-10T10:00:24;4.35;;;1.40;;
64795;SDS011;51229;51.980;6.722;2022-07-10T10:02:55;3.50;;;1.30;;
64795;SDS011;51229;51.980;6.722;2022-07-10T10:05:32;3.25;;;1.40;;
64795;SDS011;51229;51.980;6.722;2022-07-10T10:08:00;2.58;;;1.38;;
64795;SDS011;51229;51.980;6.722;2022-07-10T10:10:44;4.88;;;1.75;;
64795;SDS011;51229;51.980;6.722;2022-07-10T10:13:22;3.60;;;1.35;;
64795;SDS011;51229;51.980;6.722;2022-07-10T10:15:52;2.92;;;1.27;;
64795;SDS011;51229;51.980;6.722;2022-07-10T10:18:22;4.32;;;1.40;;
64795;SDS011;51229;51.980;6.722;2022-07-10T10:20:49;2.95;;;1.50;;
64795;SDS011;51229;51.980;6.722;2022-07-10T10:23:17;4.07;;;1.60;;
64795;SDS011;51229;51.980;6.722;2022-07-10T10:25:46;3.25;;;1.40;;
64795;SDS011;51229;51.980;6.722;2022-07-10T10:28:13;3.60;;;1.60;;
64795;SDS011;51229;51.980;6.722;2022-07-10T10:30:41;5.50;;;2.20;;
64795;SDS011;51229;51.980;6.722;2022-07-10T10:36:10;3.13;;;1.50;;
64795;SDS011;51229;51.980;6.722;2022-07-10T10:41:24;3.95;;;1.83;;
64795;SDS011;51229;51.980;6.722;2022-07-10T10:49:19;6.00;;;2.65;;
64795;SDS011;51229;51.980;6.722;2022-07-10T10:54:25;5.50;;;2.40;;
64795;SDS011;51229;51.980;6.722;2022-07-10T10:59:56;5.78;;;2.30;;
64795;SDS011;51229;51.980;6.722;2022-07-10T11:02:26;4.65;;;2.33;;
64795;SDS011;51229;51.980;6.722;2022-07-10T11:07:52;8.02;;;2.70;;
64795;SDS011;51229;51.980;6.722;2022-07-10T11:10:34;5.38;;;2.45;;
64795;SDS011;51229;51.980;6.722;2022-07-10T11:13:14;5.88;;;2.70;;
64795;SDS011;51229;51.980;6.722;2022-07-10T11:15:41;5.68;;;2.90;;
64795;SDS011;51229;51.980;6.722;2022-07-10T11:18:10;6.22;;;3.08;;
64795;SDS011;51229;51.980;6.722;2022-07-10T11:20:50;5.93;;;2.53;;
64795;SDS011;51229;51.980;6.722;2022-07-10T11:26:05;4.70;;;2.75;;
64795;SDS011;51229;51.980;6.722;2022-07-10T11:28:41;4.80;;;2.58;;
64795;SDS011;51229;51.980;6.722;2022-07-10T11:31:24;7.22;;;2.83;;
64795;SDS011;51229;51.980;6.722;2022-07-10T11:33:55;6.50;;;3.25;;
64795;SDS011;51229;51.980;6.722;2022-07-10T11:36:26;5.25;;;2.72;;
64795;SDS011;51229;51.980;6.722;2022-07-10T11:39:04;6.32;;;2.90;;
64795;SDS011;51229;51.980;6.722;2022-07-10T11:41:34;8.00;;;2.80;;
64795;SDS011;51229;51.980;6.722;2022-07-10T11:44:06;6.70;;;2.42;;
64795;SDS011;51229;51.980;6.722;2022-07-10T11:46:37;6.97;;;2.22;;
64795;SDS011;51229;51.980;6.722;2022-07-10T11:49:04;4.30;;;2.30;;
64795;SDS011;51229;51.980;6.722;2022-07-10T11:51:37;3.90;;;1.98;;
64795;SDS011;51229;51.980;6.722;2022-07-10T11:54:05;4.32;;;1.95;;
64795;SDS011;51229;51.980;6.722;2022-07-10T11:56:33;7.57;;;2.47;;
64795;SDS011;51229;51.980;6.722;2022-07-10T11:59:01;7.57;;;2.35;;
64795;SDS011;51229;51.980;6.722;2022-07-10T12:01:35;5.63;;;2.15;;
64795;SDS011;51229;51.980;6.722;2022-07-10T12:04:11;4.07;;;2.05;;
64795;SDS011;51229;51.980;6.722;2022-07-10T12:06:38;6.35;;;2.20;;
64795;SDS011;51229;51.980;6.722;2022-07-10T12:09:06;5.22;;;2.10;;
64795;SDS011;51229;51.980;6.722;2022-07-10T12:11:36;4.85;;;2.40;;
64795;SDS011;51229;51.980;6.722;2022-07-10T12:14:18;7.57;;;2.20;;
64795;SDS011;51229;51.980;6.722;2022-07-10T12:16:48;5.82;;;2.42;;
64795;SDS011;51229;51.980;6.722;2022-07-10T12:19:17;5.65;;;2.40;;
64795;SDS011;51229;51.980;6.722;2022-07-10T12:21:45;4.78;;;2.00;;
64795;SDS011;51229;51.980;6.722;2022-07-10T12:24:12;4.43;;;2.00;;
64795;SDS011;51229;51.980;6.722;2022-07-10T12:26:41;4.88;;;2.30;;
64795;SDS011;51229;51.980;6.722;2022-07-10T12:29:11;4.90;;;2.22;;
64795;SDS011;51229;51.980;6.722;2022-07-10T12:31:44;4.72;;;2.28;;
64795;SDS011;51229;51.980;6.722;2022-07-10T12:34:11;5.60;;;2.40;;
64795;SDS011;51229;51.980;6.722;2022-07-10T12:36:48;5.43;;;2.40;;
64795;SDS011;51229;51.980;6.722;2022-07-10T12:39:18;4.43;;;2.15;;
64795;SDS011;51229;51.980;6.722;2022-07-10T12:41:56;4.88;;;2.35;;
64795;SDS011;51229;51.980;6.722;2022-07-10T12:44:37;4.13;;;1.90;;
64795;SDS011;51229;51.980;6.722;2022-07-10T12:47:25;3.78;;;1.85;;
64795;SDS011;51229;51.980;6.722;2022-07-10T12:49:54;4.93;;;1.85;;
64795;SDS011;51229;51.980;6.722;2022-07-10T12:52:28;4.43;;;1.77;;
64795;SDS011;51229;51.980;6.722;2022-07-10T12:55:06;7.28;;;1.92;;
64795;SDS011;51229;51.980;6.722;2022-07-10T12:58:05;5.35;;;1.60;;
64795;SDS011;51229;51.980;6.722;2022-07-10T13:00:49;4.75;;;1.55;;
64795;SDS011;51229;51.980;6.722;2022-07-10T13:03:19;3.22;;;1.50;;
64795;SDS011;51229;51.980;6.722;2022-07-10T13:05:49;3.28;;;1.58;;
64795;SDS011;51229;51.980;6.722;2022-07-10T13:08:20;3.67;;;1.40;;
64795;SDS011;51229;51.980;6.722;2022-07-10T13:10:49;3.72;;;1.50;;
64795;SDS011;51229;51.980;6.722;2022-07-10T13:13:18;5.07;;;1.50;;
64795;SDS011;51229;51.980;6.722;2022-07-10T13:15:44;3.42;;;1.48;;
64795;SDS011;51229;51.980;6.722;2022-07-10T13:18:15;3.80;;;1.30;;
64795;SDS011;51229;51.980;6.722;2022-07-10T13:20:43;3.97;;;1.60;;
64795;SDS011;51229;51.980;6.722;2022-07-10T13:23:18;4.93;;;1.70;;
64795;SDS011;51229;51.980;6.722;2022-07-10T13:25:47;7.47;;;1.65;;
64795;SDS011;51229;51.980;6.722;2022-07-10T13:28:16;3.40;;;1.60;;
64795;SDS011;51229;51.980;6.722;2022-07-10T13:30:42;3.17;;;1.73;;
64795;SDS011;51229;51.980;6.722;2022-07-10T13:33:08;3.97;;;1.50;;
64795;SDS011;51229;51.980;6.722;2022-07-10T13:35:35;4.50;;;1.80;;
64795;SDS011;51229;51.980;6.722;2022-07-10T13:38:01;3.75;;;1.83;;
64795;SDS011;51229;51.980;6.722;2022-07-10T13:40:31;4.78;;;1.60;;
64795;SDS011;51229;51.980;6.722;2022-07-10T13:42:59;4.70;;;1.50;;
64795;SDS011;51229;51.980;6.722;2022-07-10T13:45:25;2.88;;;1.48;;
64795;SDS011;51229;51.980;6.722;2022-07-10T13:47:55;2.42;;;1.33;;
64795;SDS011;51229;51.980;6.722;2022-07-10T13:50:21;3.75;;;1.48;;
64795;SDS011;51229;51.980;6.722;2022-07-10T13:52:48;4.90;;;1.60;;
64795;SDS011;51229;51.980;6.722;2022-07-10T13:55:14;3.15;;;1.38;;
64795;SDS011;51229;51.980;6.722;2022-07-10T13:57:40;4.53;;;1.40;;
64795;SDS011;51229;51.980;6.722;2022-07-10T14:00:06;3.65;;;1.45;;
64795;SDS011;51229;51.980;6.722;2022-07-10T14:02:37;3.10;;;1.20;;
64795;SDS011;51229;51.980;6.722;2022-07-10T14:05:03;3.45;;;1.50;;
64795;SDS011;51229;51.980;6.722;2022-07-10T14:07:28;3.85;;;1.52;;
64795;SDS011;51229;51.980;6.722;2022-07-10T14:09:54;3.10;;;1.42;;
64795;SDS011;51229;51.980;6.722;2022-07-10T14:12:20;3.08;;;1.70;;
64795;SDS011;51229;51.980;6.722;2022-07-10T14:14:46;3.15;;;1.48;;
64795;SDS011;51229;51.980;6.722;2022-07-10T14:17:12;3.33;;;1.60;;
64795;SDS011;51229;51.980;6.722;2022-07-10T14:19:37;3.78;;;1.48;;
64795;SDS011;51229;51.980;6.722;2022-07-10T14:22:03;3.00;;;1.40;;
64795;SDS011;51229;51.980;6.722;2022-07-10T14:24:29;3.17;;;1.38;;
64795;SDS011;51229;51.980;6.722;2022-07-10T14:26:55;2.47;;;1.25;;
64795;SDS011;51229;51.980;6.722;2022-07-10T14:29:21;5.55;;;1.75;;
64795;SDS011;51229;51.980;6.722;2022-07-10T14:31:47;3.67;;;1.45;;
64795;SDS011;51229;51.980;6.722;2022-07-10T14:34:17;2.22;;;1.30;;
64795;SDS011;51229;51.980;6.722;2022-07-10T14:36:43;2.67;;;1.42;;
64795;SDS011;51229;51.980;6.722;2022-07-10T14:39:09;4.47;;;1.60;;
64795;SDS011;51229;51.980;6.722;2022-07-10T14:41:37;3.50;;;1.40;;
64795;SDS011;51229;51.980;6.722;2022-07-10T14:44:03;3.40;;;1.30;;
64795;SDS011;51229;51.980;6.722;2022-07-10T14:46:31;4.30;;;1.50;;
64795;SDS011;51229;51.980;6.722;2022-07-10T14:48:57;3.80;;;1.45;;
64795;SDS011;51229;51.980;6.722;2022-07-10T14:51:22;8.50;;;1.65;;
64795;SDS011;51229;51.980;6.722;2022-07-10T14:53:48;3.72;;;1.52;;
64795;SDS011;51229;51.980;6.722;2022-07-10T14:56:14;3.78;;;1.52;;
64795;SDS011;51229;51.980;6.722;2022-07-10T14:58:44;6.15;;;1.70;;
64795;SDS011;51229;51.980;6.722;2022-07-10T15:01:10;4.40;;;1.70;;
64795;SDS011;51229;51.980;6.722;2022-07-10T15:03:37;3.55;;;1.60;;
64795;SDS011;51229;51.980;6.722;2022-07-10T15:06:02;2.45;;;1.40;;
64795;SDS011;51229;51.980;6.722;2022-07-10T15:08:29;3.70;;;1.30;;
64795;SDS011;51229;51.980;6.722;2022-07-10T15:10:55;4.38;;;1.50;;
64795;SDS011;51229;51.980;6.722;2022-07-10T15:13:21;6.68;;;1.80;;
64795;SDS011;51229;51.980;6.722;2022-07-10T15:15:46;4.53;;;1.52;;
64795;SDS011;51229;51.980;6.722;2022-07-10T15:18:15;4.88;;;1.92;;
64795;SDS011;51229;51.980;6.722;2022-07-10T15:20:40;4.63;;;1.40;;
64795;SDS011;51229;51.980;6.722;2022-07-10T15:23:06;3.88;;;1.30;;
64795;SDS011;51229;51.980;6.722;2022-07-10T15:25:31;3.30;;;1.25;;
64795;SDS011;51229;51.980;6.722;2022-07-10T15:27:57;3.05;;;1.23;;
64795;SDS011;51229;51.980;6.722;2022-07-10T15:30:23;3.15;;;1.20;;